createdAt,value
2018-07-26T00:00:14.296Z,10.73
2018-07-26T00:02:43.102Z,12.27
2018-07-26T00:05:11.652Z,10.73
2018-07-26T00:07:40.209Z,10.23
2018-07-26T00:10:09.673Z,10.47
2018-07-26T00:12:38.370Z,11.27
2018-07-26T00:15:08.106Z,12.33
2018-07-26T00:17:36.746Z,14.17
2018-07-26T00:20:05.628Z,12.50
2018-07-26T00:22:34.159Z,13.30
2018-07-26T00:25:02.720Z,12.47
2018-07-26T00:27:31.305Z,13.33
2018-07-26T00:29:59.830Z,13.67
2018-07-26T00:32:28.362Z,11.77
2018-07-26T00:34:56.897Z,10.83
2018-07-26T00:37:25.457Z,11.10
2018-07-26T00:39:53.938Z,12.53
2018-07-26T00:42:22.440Z,12.13
2018-07-26T00:44:50.621Z,12.30
2018-07-26T00:47:19.191Z,11.53
2018-07-26T00:49:47.703Z,11.27
2018-07-26T00:52:16.233Z,11.23
2018-07-26T00:54:44.726Z,11.83
2018-07-26T00:57:13.235Z,10.30
2018-07-26T00:59:41.740Z,10.70
2018-07-26T01:02:10.216Z,12.40
2018-07-26T01:04:38.744Z,10.83
2018-07-26T01:07:07.242Z,12.53
2018-07-26T01:09:35.837Z,11.13
2018-07-26T01:12:04.527Z,12.00
2018-07-26T01:14:33.061Z,13.07
2018-07-26T01:17:01.619Z,11.60
2018-07-26T01:19:30.141Z,16.00
2018-07-26T01:21:58.712Z,11.70
2018-07-26T01:24:27.206Z,12.23
2018-07-26T01:26:55.763Z,11.60
2018-07-26T01:29:24.287Z,12.37
2018-07-26T01:31:54.642Z,11.77
2018-07-26T01:34:24.243Z,11.30
2018-07-26T01:36:53.387Z,12.57
2018-07-26T01:39:21.920Z,15.17
2018-07-26T01:41:51.064Z,11.83
2018-07-26T01:44:21.195Z,11.27
2018-07-26T01:46:49.759Z,13.03
2018-07-26T01:49:18.494Z,11.87
2018-07-26T01:51:47.094Z,12.80
2018-07-26T01:54:15.862Z,12.20
2018-07-26T01:56:44.442Z,13.60
2018-07-26T01:59:13.002Z,14.60
2018-07-26T02:01:41.558Z,11.83
2018-07-26T02:04:10.015Z,12.77
2018-07-26T02:06:38.513Z,12.37
2018-07-26T02:09:08.589Z,12.87
2018-07-26T02:11:37.242Z,14.43
2018-07-26T02:14:05.890Z,13.00
2018-07-26T02:16:34.374Z,12.37
2018-07-26T02:19:02.871Z,12.37
2018-07-26T02:21:31.447Z,13.73
2018-07-26T02:24:00.063Z,13.27
2018-07-26T02:26:28.552Z,15.13
2018-07-26T02:28:57.070Z,14.43
2018-07-26T02:31:25.578Z,12.77
2018-07-26T02:33:54.122Z,13.00
2018-07-26T02:36:22.667Z,13.50
2018-07-26T02:38:51.250Z,13.10
2018-07-26T02:41:19.743Z,13.87
2018-07-26T02:43:48.218Z,13.47
2018-07-26T02:46:16.747Z,13.17
2018-07-26T02:48:45.278Z,14.03
2018-07-26T02:51:13.785Z,15.07
2018-07-26T02:53:42.386Z,14.40
2018-07-26T02:56:10.875Z,14.40
2018-07-26T02:58:39.338Z,15.10
2018-07-26T03:01:07.851Z,14.97
2018-07-26T03:03:36.413Z,14.90
2018-07-26T03:06:04.987Z,17.80
2018-07-26T03:08:33.543Z,16.60
2018-07-26T03:11:02.075Z,14.60
2018-07-26T03:13:30.643Z,15.20
2018-07-26T03:15:59.178Z,15.97
2018-07-26T03:18:27.352Z,15.03
2018-07-26T03:20:55.907Z,14.47
2018-07-26T03:23:24.378Z,15.70
2018-07-26T03:25:52.906Z,14.73
2018-07-26T03:28:21.424Z,16.47
2018-07-26T03:30:49.938Z,15.17
2018-07-26T03:33:18.425Z,14.70
2018-07-26T03:35:46.981Z,16.40
2018-07-26T03:38:15.557Z,14.30
2018-07-26T03:40:44.049Z,16.23
2018-07-26T03:43:12.526Z,14.43
2018-07-26T03:45:41.038Z,14.73
2018-07-26T03:48:09.502Z,16.27
2018-07-26T03:50:37.989Z,19.53
2018-07-26T03:53:06.522Z,16.33
2018-07-26T03:55:35.046Z,14.57
2018-07-26T03:58:03.650Z,14.83
2018-07-26T04:00:32.242Z,15.10
2018-07-26T04:03:00.766Z,15.03
2018-07-26T04:05:29.356Z,16.50
2018-07-26T04:07:57.877Z,14.80
2018-07-26T04:10:26.519Z,14.97
2018-07-26T04:12:55.057Z,13.73
2018-07-26T04:15:23.651Z,13.97
2018-07-26T04:17:56.386Z,17.03
2018-07-26T04:20:24.905Z,13.60
2018-07-26T04:22:53.440Z,13.93
2018-07-26T04:25:22.014Z,15.60
2018-07-26T04:27:50.506Z,12.07
2018-07-26T04:30:19.041Z,13.10
2018-07-26T04:32:47.891Z,13.57
2018-07-26T04:35:16.664Z,16.53
2018-07-26T04:37:45.268Z,14.30
2018-07-26T04:40:13.780Z,14.97
2018-07-26T04:42:42.541Z,14.73
2018-07-26T04:45:11.098Z,15.00
2018-07-26T04:47:39.577Z,13.17
2018-07-26T04:50:08.102Z,13.10
2018-07-26T04:52:36.645Z,15.57
2018-07-26T04:55:05.134Z,14.97
2018-07-26T04:57:33.756Z,14.07
2018-07-26T05:00:02.347Z,13.17
2018-07-26T05:02:30.896Z,13.80
2018-07-26T05:04:59.405Z,13.83
2018-07-26T05:07:27.904Z,13.50
2018-07-26T05:09:56.178Z,13.17
2018-07-26T05:12:24.729Z,13.93
2018-07-26T05:14:53.483Z,14.67
2018-07-26T05:17:22.054Z,12.80
2018-07-26T05:19:50.646Z,12.83
2018-07-26T05:22:19.126Z,15.93
2018-07-26T05:24:47.606Z,11.77
2018-07-26T05:27:16.126Z,12.33
2018-07-26T05:29:44.642Z,12.57
2018-07-26T05:32:13.219Z,12.07
2018-07-26T05:34:41.734Z,11.73
2018-07-26T05:37:10.286Z,15.20
2018-07-26T05:39:38.775Z,13.80
2018-07-26T05:42:07.339Z,12.00
2018-07-26T05:44:35.866Z,11.73
2018-07-26T05:47:04.430Z,11.90
2018-07-26T05:49:32.957Z,10.67
2018-07-26T05:52:01.470Z,12.73
2018-07-26T05:54:30.004Z,11.43
2018-07-26T05:56:58.517Z,10.53
2018-07-26T05:59:26.993Z,10.27
2018-07-26T06:01:55.237Z,10.47
2018-07-26T06:04:23.734Z,9.83
2018-07-26T06:06:52.253Z,11.00
2018-07-26T06:09:20.763Z,12.37
2018-07-26T06:11:49.367Z,10.73
2018-07-26T06:14:17.822Z,9.83
2018-07-26T06:16:46.312Z,9.10
2018-07-26T06:19:14.858Z,10.47
2018-07-26T06:21:43.371Z,9.43
2018-07-26T06:24:11.903Z,13.00
2018-07-26T06:26:40.446Z,10.60
2018-07-26T06:29:08.978Z,13.07
2018-07-26T06:31:37.666Z,10.03
2018-07-26T06:34:06.466Z,10.67
2018-07-26T06:36:34.966Z,9.70
2018-07-26T06:39:04.954Z,10.60
2018-07-26T06:41:33.426Z,10.57
2018-07-26T06:44:01.654Z,11.60
2018-07-26T06:46:30.221Z,9.70
2018-07-26T06:48:58.717Z,9.17
2018-07-26T06:51:27.341Z,11.07
2018-07-26T06:53:55.987Z,9.60
2018-07-26T06:56:24.527Z,10.13
2018-07-26T06:58:53.123Z,9.23
2018-07-26T07:01:21.735Z,10.33
2018-07-26T07:03:50.285Z,10.47
2018-07-26T07:06:18.765Z,9.40
2018-07-26T07:08:47.306Z,9.40
2018-07-26T07:11:16.043Z,8.53
2018-07-26T07:13:44.584Z,8.10
2018-07-26T07:16:13.091Z,9.80
2018-07-26T07:18:41.778Z,10.47
2018-07-26T07:21:10.281Z,7.80
2018-07-26T07:23:39.435Z,7.60
2018-07-26T07:26:08.019Z,7.87
2018-07-26T07:28:36.467Z,7.10
2018-07-26T07:31:04.987Z,7.37
2018-07-26T07:33:33.499Z,6.70
2018-07-26T07:36:02.266Z,7.60
2018-07-26T07:38:30.858Z,8.10
2018-07-26T07:40:59.446Z,6.67
2018-07-26T07:43:27.722Z,6.73
2018-07-26T07:45:56.210Z,7.17
2018-07-26T07:48:24.511Z,7.17
2018-07-26T07:50:53.082Z,6.27
2018-07-26T07:53:21.554Z,7.40
2018-07-26T07:55:50.122Z,8.80
2018-07-26T07:58:18.656Z,8.23
2018-07-26T08:00:47.155Z,9.13
2018-07-26T08:03:15.742Z,6.80
2018-07-26T08:05:44.233Z,7.07
2018-07-26T08:08:12.790Z,6.73
2018-07-26T08:10:41.310Z,6.57
2018-07-26T08:13:09.933Z,6.30
2018-07-26T08:15:38.117Z,6.50
2018-07-26T08:18:07.174Z,6.70
2018-07-26T08:20:35.709Z,6.97
2018-07-26T08:23:04.194Z,6.83
2018-07-26T08:25:32.706Z,4.70
2018-07-26T08:28:01.284Z,4.17
2018-07-26T08:30:30.094Z,4.80
2018-07-26T08:32:58.698Z,3.93
2018-07-26T08:35:27.210Z,4.30
2018-07-26T08:37:55.692Z,4.03
2018-07-26T08:40:24.217Z,5.33
2018-07-26T08:42:52.766Z,4.80
2018-07-26T08:45:21.306Z,4.47
2018-07-26T08:47:49.814Z,4.07
2018-07-26T08:50:18.366Z,3.80
2018-07-26T08:52:46.577Z,3.83
2018-07-26T08:55:15.099Z,4.03
2018-07-26T08:57:43.643Z,4.97
2018-07-26T09:00:13.242Z,4.43
2018-07-26T09:02:41.775Z,4.40
2018-07-26T09:05:09.925Z,5.43
2018-07-26T09:07:38.444Z,5.30
2018-07-26T09:10:06.998Z,4.50
2018-07-26T09:12:35.590Z,4.43
2018-07-26T09:15:04.176Z,5.77
2018-07-26T09:17:32.650Z,4.30
2018-07-26T09:20:01.185Z,4.00
2018-07-26T09:22:29.754Z,5.50
2018-07-26T09:24:58.296Z,9.37
2018-07-26T09:27:26.848Z,7.13
2018-07-26T09:29:55.392Z,5.67
2018-07-26T09:32:23.898Z,7.23
2018-07-26T09:34:52.440Z,7.77
2018-07-26T09:37:21.107Z,7.07
2018-07-26T09:39:49.593Z,6.27
2018-07-26T09:42:18.169Z,7.97
2018-07-26T09:44:46.655Z,6.60
2018-07-26T09:47:15.150Z,6.83
2018-07-26T09:49:43.751Z,5.60
2018-07-26T09:52:12.287Z,4.87
2018-07-26T09:54:40.786Z,5.57
2018-07-26T09:57:09.322Z,6.00
2018-07-26T09:59:37.818Z,5.97
2018-07-26T10:02:06.375Z,5.53
2018-07-26T10:04:34.902Z,5.73
2018-07-26T10:07:03.494Z,7.07
2018-07-26T10:09:32.995Z,6.20
2018-07-26T10:12:01.496Z,5.07
2018-07-26T10:14:30.111Z,4.43
2018-07-26T10:16:58.836Z,4.00
2018-07-26T10:19:27.353Z,3.77
2018-07-26T10:21:55.879Z,4.60
2018-07-26T10:24:24.370Z,3.50
2018-07-26T10:26:52.910Z,3.97
2018-07-26T10:29:21.606Z,3.33
2018-07-26T10:31:50.088Z,3.27
2018-07-26T10:34:18.589Z,4.13
2018-07-26T10:36:47.207Z,7.53
2018-07-26T10:39:15.762Z,4.83
2018-07-26T10:41:44.269Z,3.53
2018-07-26T10:44:12.795Z,3.80
2018-07-26T10:46:41.290Z,2.63
2018-07-26T10:49:09.968Z,2.60
2018-07-26T10:51:39.871Z,3.00
2018-07-26T10:54:08.379Z,3.20
2018-07-26T10:56:36.863Z,3.50
2018-07-26T10:59:05.502Z,4.60
2018-07-26T11:01:33.995Z,4.33
2018-07-26T11:04:02.735Z,4.90
2018-07-26T11:06:31.226Z,3.40
2018-07-26T11:08:59.748Z,3.53
2018-07-26T11:11:28.284Z,2.77
2018-07-26T11:13:56.811Z,3.63
2018-07-26T11:16:25.323Z,2.97
2018-07-26T11:18:54.230Z,4.63
2018-07-26T11:21:22.750Z,6.17
2018-07-26T11:23:51.286Z,3.57
2018-07-26T11:26:19.798Z,3.50
2018-07-26T11:28:48.339Z,3.90
2018-07-26T11:31:16.826Z,3.27
2018-07-26T11:33:45.318Z,4.80
2018-07-26T11:36:13.822Z,3.23
2018-07-26T11:38:42.362Z,3.77
2018-07-26T11:41:11.791Z,3.30
2018-07-26T11:43:40.632Z,3.33
2018-07-26T11:46:09.663Z,3.67
2018-07-26T11:48:38.294Z,3.87
2018-07-26T11:51:06.834Z,3.47
2018-07-26T11:53:35.362Z,4.10
2018-07-26T11:56:04.054Z,9.10
2018-07-26T11:58:32.576Z,5.67
2018-07-26T12:01:01.965Z,8.47
2018-07-26T12:03:30.478Z,5.43
2018-07-26T12:05:58.970Z,5.10
2018-07-26T12:08:27.585Z,9.20
2018-07-26T12:10:56.126Z,6.40
2018-07-26T12:13:24.625Z,6.67
2018-07-26T12:15:55.000Z,4.47
2018-07-26T12:18:23.508Z,4.73
2018-07-26T12:20:51.975Z,5.20
2018-07-26T12:23:20.515Z,7.27
2018-07-26T12:25:49.010Z,5.13
2018-07-26T12:28:17.506Z,4.80
2018-07-26T12:30:46.088Z,6.57
2018-07-26T12:33:14.562Z,7.90
2018-07-26T12:35:43.164Z,5.00
2018-07-26T12:38:11.639Z,6.17
2018-07-26T12:40:40.119Z,7.27
2018-07-26T12:43:08.668Z,9.37
2018-07-26T12:45:37.139Z,7.40
2018-07-26T12:48:05.670Z,7.53
2018-07-26T12:50:34.142Z,9.13
2018-07-26T12:53:02.615Z,7.13
2018-07-26T12:55:31.159Z,6.93
2018-07-26T12:57:59.658Z,9.30
2018-07-26T13:00:28.199Z,7.33
2018-07-26T13:02:56.702Z,9.37
2018-07-26T13:05:25.202Z,9.60
2018-07-26T13:07:53.744Z,6.53
2018-07-26T13:10:22.536Z,5.93
2018-07-26T13:12:51.103Z,6.27
2018-07-26T13:15:19.933Z,7.57
2018-07-26T13:17:48.854Z,6.13
2018-07-26T13:20:17.057Z,7.17
2018-07-26T13:22:45.565Z,7.03
2018-07-26T13:25:14.054Z,6.63
2018-07-26T13:27:42.546Z,7.00
2018-07-26T13:30:11.074Z,6.73
2018-07-26T13:32:39.566Z,6.60
2018-07-26T13:35:08.106Z,7.37
2018-07-26T13:37:36.632Z,6.60
2018-07-26T13:40:05.213Z,7.07
2018-07-26T13:42:33.771Z,7.53
2018-07-26T13:45:02.281Z,8.43
2018-07-26T13:47:30.752Z,7.40
2018-07-26T13:49:59.390Z,7.17
2018-07-26T13:52:28.073Z,8.27
2018-07-26T13:54:56.454Z,7.40
2018-07-26T13:57:25.003Z,7.70
2018-07-26T13:59:53.482Z,7.60
2018-07-26T14:02:21.645Z,7.50
2018-07-26T14:04:50.165Z,7.53
2018-07-26T14:07:18.666Z,11.57
2018-07-26T14:09:47.255Z,8.00
2018-07-26T14:12:15.705Z,7.40
2018-07-26T14:14:44.231Z,7.90
2018-07-26T14:17:12.960Z,8.47
2018-07-26T14:19:41.455Z,9.97
2018-07-26T14:22:10.077Z,7.47
2018-07-26T14:24:38.577Z,8.20
2018-07-26T14:27:07.131Z,9.17
2018-07-26T14:29:35.761Z,8.77
2018-07-26T14:32:04.238Z,10.13
2018-07-26T14:34:32.727Z,8.17
2018-07-26T14:37:01.286Z,9.20
2018-07-26T14:39:29.888Z,7.87
2018-07-26T14:41:58.470Z,7.37
2018-07-26T14:44:26.963Z,7.07
2018-07-26T14:46:55.534Z,7.73
2018-07-26T14:49:24.052Z,8.47
2018-07-26T14:51:52.578Z,6.87
2018-07-26T14:54:21.091Z,7.63
2018-07-26T14:56:49.565Z,7.43
2018-07-26T14:59:18.059Z,8.03
2018-07-26T15:01:46.580Z,7.80
2018-07-26T15:04:15.112Z,9.20
2018-07-26T15:06:43.707Z,7.60
2018-07-26T15:09:11.923Z,7.10
2018-07-26T15:11:40.447Z,7.33
2018-07-26T15:14:09.006Z,6.63
2018-07-26T15:16:37.534Z,6.90
2018-07-26T15:19:06.314Z,7.10
2018-07-26T15:21:34.809Z,8.47
2018-07-26T15:24:03.309Z,6.70
2018-07-26T15:26:31.834Z,8.23
2018-07-26T15:29:00.548Z,8.60
2018-07-26T15:31:29.197Z,6.83
2018-07-26T15:33:57.724Z,9.00
2018-07-26T15:36:26.687Z,7.50
2018-07-26T15:38:55.261Z,7.40
2018-07-26T15:41:24.065Z,7.30
2018-07-26T15:43:52.593Z,8.67
2018-07-26T15:46:21.110Z,7.83
2018-07-26T15:48:49.666Z,7.43
2018-07-26T15:51:18.188Z,7.10
2018-07-26T15:53:46.670Z,7.80
2018-07-26T15:56:15.234Z,6.67
2018-07-26T15:58:43.748Z,9.10
2018-07-26T16:01:12.283Z,6.87
2018-07-26T16:03:40.795Z,8.23
2018-07-26T16:06:09.316Z,7.53
2018-07-26T16:08:37.793Z,8.93
2018-07-26T16:11:06.345Z,10.10
2018-07-26T16:13:34.899Z,6.70
2018-07-26T16:16:03.650Z,8.47
2018-07-26T16:18:32.786Z,6.90
2018-07-26T16:21:01.317Z,7.20
2018-07-26T16:23:29.971Z,7.73
2018-07-26T16:25:58.652Z,7.20
2018-07-26T16:28:27.160Z,7.73
2018-07-26T16:30:55.658Z,8.13
2018-07-26T16:33:24.242Z,7.83
2018-07-26T16:35:52.824Z,6.77
2018-07-26T16:38:21.320Z,6.47
2018-07-26T16:40:49.926Z,7.00
2018-07-26T16:43:18.456Z,8.20
2018-07-26T16:45:46.962Z,7.17
2018-07-26T16:48:15.450Z,8.13
2018-07-26T16:50:44.042Z,7.27
2018-07-26T16:53:12.661Z,7.50
2018-07-26T16:55:41.150Z,8.57
2018-07-26T16:58:09.794Z,7.33
2018-07-26T17:00:39.137Z,6.80
2018-07-26T17:03:07.672Z,6.93
2018-07-26T17:05:36.342Z,5.27
2018-07-26T17:08:04.989Z,4.70
2018-07-26T17:10:33.506Z,4.03
2018-07-26T17:13:02.124Z,5.53
2018-07-26T17:15:30.703Z,3.27
2018-07-26T17:17:59.233Z,3.57
2018-07-26T17:20:27.737Z,3.17
2018-07-26T17:22:56.261Z,3.20
2018-07-26T17:25:25.114Z,3.30
2018-07-26T17:27:54.802Z,5.30
2018-07-26T17:30:23.352Z,3.73
2018-07-26T17:32:51.873Z,5.83
2018-07-26T17:35:20.664Z,3.80
2018-07-26T17:37:49.209Z,4.07
2018-07-26T17:40:17.814Z,4.93
2018-07-26T17:42:46.383Z,3.53
2018-07-26T17:45:14.977Z,4.73
2018-07-26T17:47:43.511Z,4.10
2018-07-26T17:50:12.149Z,4.27
2018-07-26T17:52:41.591Z,4.53
2018-07-26T17:55:10.269Z,5.53
2018-07-26T17:57:39.447Z,5.90
2018-07-26T18:00:10.088Z,5.77
2018-07-26T18:02:38.706Z,5.13
2018-07-26T18:05:07.338Z,5.20
2018-07-26T18:07:36.298Z,5.37
2018-07-26T18:10:06.030Z,6.13
2018-07-26T18:12:35.093Z,7.90
2018-07-26T18:15:05.265Z,8.10
2018-07-26T18:17:34.240Z,8.30
2018-07-26T18:20:02.747Z,6.50
2018-07-26T18:22:31.230Z,6.77
2018-07-26T18:24:59.756Z,8.27
2018-07-26T18:27:28.346Z,7.17
2018-07-26T18:29:56.917Z,6.03
2018-07-26T18:32:25.447Z,6.73
2018-07-26T18:34:53.990Z,6.53
2018-07-26T18:37:22.640Z,6.73
2018-07-26T18:39:51.135Z,6.93
2018-07-26T18:42:19.667Z,8.43
2018-07-26T18:44:48.170Z,6.90
2018-07-26T18:47:16.648Z,7.33
2018-07-26T18:49:45.135Z,8.17
2018-07-26T18:52:13.818Z,7.53
2018-07-26T18:54:42.335Z,8.50
2018-07-26T18:57:10.863Z,10.40
2018-07-26T18:59:39.425Z,8.47
2018-07-26T19:02:08.018Z,7.87
2018-07-26T19:04:36.538Z,8.03
2018-07-26T19:07:05.227Z,7.93
2018-07-26T19:09:33.704Z,8.40
2018-07-26T19:12:02.283Z,9.83
2018-07-26T19:14:31.387Z,8.97
2018-07-26T19:16:59.914Z,11.90
2018-07-26T19:19:28.643Z,9.03
2018-07-26T19:21:57.191Z,8.30
2018-07-26T19:24:25.713Z,7.73
2018-07-26T19:26:54.286Z,7.77
2018-07-26T19:29:22.791Z,8.07
2018-07-26T19:31:51.302Z,7.00
2018-07-26T19:34:21.506Z,8.67
2018-07-26T19:36:51.006Z,9.00
2018-07-26T19:39:19.555Z,7.63
2018-07-26T19:41:48.140Z,7.50
2018-07-26T19:44:16.724Z,8.50
2018-07-26T19:46:45.198Z,7.77
2018-07-26T19:49:13.751Z,8.80
2018-07-26T19:51:42.330Z,9.67
2018-07-26T19:54:10.934Z,11.47
2018-07-26T19:56:39.410Z,12.33
2018-07-26T19:59:07.973Z,11.63
2018-07-26T20:01:36.486Z,9.33
2018-07-26T20:04:05.102Z,9.47
2018-07-26T20:06:33.598Z,8.10
2018-07-26T20:09:02.235Z,9.40
2018-07-26T20:11:30.777Z,7.23
2018-07-26T20:13:59.273Z,7.37
2018-07-26T20:16:27.838Z,6.90
2018-07-26T20:18:56.374Z,7.00
2018-07-26T20:21:24.885Z,6.87
2018-07-26T20:23:53.844Z,7.33
2018-07-26T20:26:22.385Z,7.57
2018-07-26T20:28:50.907Z,12.47
2018-07-26T20:31:19.465Z,7.67
2018-07-26T20:33:48.007Z,6.57
2018-07-26T20:36:16.546Z,7.03
2018-07-26T20:38:45.088Z,8.17
2018-07-26T20:41:13.658Z,6.40
2018-07-26T20:43:42.239Z,6.40
2018-07-26T20:46:10.762Z,7.17
2018-07-26T20:48:39.325Z,5.73
2018-07-26T20:51:08.226Z,6.53
2018-07-26T20:53:36.758Z,5.63
2018-07-26T20:56:05.362Z,5.27
2018-07-26T20:58:33.892Z,7.33
2018-07-26T21:01:02.414Z,6.93
2018-07-26T21:03:31.008Z,6.33
2018-07-26T21:05:59.599Z,6.50
2018-07-26T21:08:28.200Z,7.03
2018-07-26T21:10:56.696Z,5.40
2018-07-26T21:13:25.231Z,5.93
2018-07-26T21:15:53.810Z,6.47
2018-07-26T21:18:22.309Z,6.07
2018-07-26T21:20:50.841Z,6.17
2018-07-26T21:23:19.387Z,7.40
2018-07-26T21:25:47.991Z,6.33
2018-07-26T21:28:16.496Z,6.80
2018-07-26T21:30:45.012Z,6.80
2018-07-26T21:33:13.572Z,7.33
2018-07-26T21:35:42.070Z,6.97
2018-07-26T21:38:10.582Z,6.30
2018-07-26T21:40:39.195Z,6.13
2018-07-26T21:43:07.732Z,6.90
2018-07-26T21:45:36.377Z,6.63
2018-07-26T21:48:04.969Z,7.20
2018-07-26T21:50:33.525Z,7.67
2018-07-26T21:53:03.056Z,6.60
2018-07-26T21:55:31.547Z,6.30
2018-07-26T21:58:00.407Z,6.67
2018-07-26T22:00:38.054Z,11.10
2018-07-26T22:03:07.146Z,12.60
2018-07-26T22:05:36.155Z,13.03
2018-07-26T22:08:04.730Z,12.90
2018-07-26T22:10:33.236Z,9.97
2018-07-26T22:13:01.717Z,9.63
2018-07-26T22:15:30.612Z,10.40
2018-07-26T22:17:59.102Z,8.37
2018-07-26T22:20:27.620Z,8.17
2018-07-26T22:22:56.209Z,10.27
2018-07-26T22:25:24.679Z,11.63
2018-07-26T22:27:53.221Z,12.00
2018-07-26T22:30:21.775Z,15.50
2018-07-26T22:32:50.302Z,17.70
2018-07-26T22:35:18.841Z,16.50
2018-07-26T22:37:47.550Z,15.83
2018-07-26T22:40:16.048Z,14.47
2018-07-26T22:42:44.545Z,12.37
2018-07-26T22:45:12.715Z,12.47
2018-07-26T22:47:41.218Z,14.57
2018-07-26T22:50:09.845Z,15.53
2018-07-26T22:52:38.422Z,15.87
2018-07-26T22:55:07.447Z,16.73
2018-07-26T22:57:36.830Z,12.77
2018-07-26T23:00:06.059Z,9.60
2018-07-26T23:02:34.638Z,11.60
2018-07-26T23:05:03.271Z,10.30
2018-07-26T23:07:31.856Z,9.93
2018-07-26T23:10:00.388Z,10.20
2018-07-26T23:12:28.962Z,9.63
2018-07-26T23:14:57.642Z,8.83
2018-07-26T23:17:26.149Z,9.33
2018-07-26T23:19:54.711Z,10.07
2018-07-26T23:22:23.222Z,10.20
2018-07-26T23:24:51.607Z,14.43
2018-07-26T23:27:20.270Z,12.33
2018-07-26T23:29:48.741Z,12.87
2018-07-26T23:32:17.249Z,11.63
2018-07-26T23:34:45.753Z,12.73
2018-07-26T23:37:14.313Z,13.37
2018-07-26T23:39:42.867Z,14.50
2018-07-26T23:42:11.342Z,13.57
2018-07-26T23:44:39.813Z,13.63
2018-07-26T23:47:08.314Z,13.77
2018-07-26T23:49:36.810Z,12.40
2018-07-26T23:52:05.354Z,12.27
2018-07-26T23:54:33.858Z,13.77
2018-07-26T23:57:02.388Z,13.50
2018-07-26T23:59:30.875Z,12.93
